createdAt,value
2022-12-18T00:01:42.064Z,44.60
2022-12-18T00:04:20.494Z,45.55
2022-12-18T00:06:51.343Z,46.20
2022-12-18T00:09:24.869Z,45.42
2022-12-18T00:14:46.581Z,43.67
2022-12-18T00:17:17.490Z,43.08
2022-12-18T00:19:50.763Z,44.10
2022-12-18T00:22:23.536Z,45.60
2022-12-18T00:24:58.527Z,44.38
2022-12-18T00:27:29.437Z,43.15
2022-12-18T00:30:01.954Z,44.30
2022-12-18T00:32:34.539Z,45.67
2022-12-18T00:35:05.768Z,44.08
2022-12-18T00:37:37.859Z,43.08
2022-12-18T00:40:13.264Z,43.22
2022-12-18T00:42:56.613Z,43.28
2022-12-18T00:45:27.808Z,43.25
2022-12-18T00:47:59.244Z,42.05
2022-12-18T00:50:30.431Z,48.15
2022-12-18T00:59:12.219Z,43.25
2022-12-18T01:01:43.731Z,42.75
2022-12-18T01:04:14.639Z,43.75
2022-12-18T01:06:45.400Z,44.50
2022-12-18T01:09:16.185Z,43.35
2022-12-18T01:11:49.747Z,44.15
2022-12-18T01:14:23.104Z,43.15
2022-12-18T01:16:54.700Z,44.13
2022-12-18T01:19:25.464Z,43.08
2022-12-18T01:21:56.198Z,43.33
2022-12-18T01:24:27.064Z,41.53
2022-12-18T01:26:59.015Z,41.50
2022-12-18T01:29:32.468Z,44.65
2022-12-18T01:32:03.359Z,40.45
2022-12-18T01:34:35.418Z,41.85
2022-12-18T01:37:06.934Z,42.20
2022-12-18T01:39:37.707Z,41.83
2022-12-18T01:42:16.028Z,40.95
2022-12-18T01:45:04.621Z,42.92
2022-12-18T01:47:40.405Z,41.78
2022-12-18T01:50:15.133Z,39.13
2022-12-18T01:52:47.300Z,41.67
2022-12-18T01:55:21.994Z,41.85
2022-12-18T01:57:55.288Z,41.97
2022-12-18T02:00:30.446Z,41.75
2022-12-18T02:03:01.832Z,43.40
2022-12-18T02:05:45.022Z,41.38
2022-12-18T02:08:25.397Z,40.75
2022-12-18T02:11:08.647Z,40.50
2022-12-18T02:13:47.498Z,41.17
2022-12-18T02:16:28.144Z,39.50
2022-12-18T02:19:02.717Z,39.90
2022-12-18T02:21:40.897Z,41.30
2022-12-18T02:24:21.724Z,41.10
2022-12-18T02:27:00.392Z,41.67
2022-12-18T10:02:54.171Z,14.48
2022-12-18T10:05:37.844Z,15.32
2022-12-18T10:08:16.220Z,15.60
2022-12-18T10:10:53.609Z,14.68
2022-12-18T10:13:32.639Z,14.85
2022-12-18T10:16:14.189Z,13.88
2022-12-18T10:19:16.425Z,13.60
2022-12-18T10:21:55.133Z,12.48
2022-12-18T10:24:35.143Z,12.65
2022-12-18T10:27:16.351Z,13.40
2022-12-18T10:29:48.623Z,13.68
2022-12-18T10:32:22.252Z,13.45
2022-12-18T10:35:00.820Z,14.32
2022-12-18T10:37:33.912Z,16.33
2022-12-18T10:40:22.563Z,16.60
2022-12-18T10:43:08.484Z,15.93
2022-12-18T10:45:39.483Z,18.65
2022-12-18T10:48:22.953Z,16.92
2022-12-18T10:51:13.610Z,18.25
2022-12-18T10:53:46.360Z,16.70
2022-12-18T10:56:23.381Z,16.50
2022-12-18T10:59:01.013Z,16.42
2022-12-18T11:01:36.044Z,17.10
2022-12-18T11:04:13.765Z,17.15
2022-12-18T11:07:00.001Z,17.17
2022-12-18T11:09:43.005Z,17.90
2022-12-18T11:12:21.230Z,17.08
2022-12-18T11:14:54.251Z,15.05
2022-12-18T11:17:28.770Z,16.30
2022-12-18T11:20:01.732Z,15.05
2022-12-18T11:22:37.151Z,15.27
2022-12-18T11:28:03.676Z,15.80
2022-12-18T11:30:37.650Z,14.63
2022-12-18T11:33:17.312Z,13.65
2022-12-18T11:35:56.508Z,13.35
2022-12-18T11:38:33.226Z,10.35
2022-12-18T11:41:13.132Z,11.48
2022-12-18T11:43:49.280Z,8.65
2022-12-18T11:46:28.358Z,8.32
2022-12-18T11:49:05.655Z,8.10
2022-12-18T11:51:38.991Z,5.78
2022-12-18T11:54:19.740Z,5.25
2022-12-18T12:00:02.539Z,4.57
2022-12-18T12:02:52.815Z,5.28
2022-12-18T12:05:45.000Z,6.80
2022-12-18T12:08:23.134Z,5.15
2022-12-18T12:11:09.953Z,5.10
2022-12-18T12:13:50.738Z,6.00
2022-12-18T12:16:27.759Z,5.10
2022-12-18T12:19:12.739Z,4.72
2022-12-18T12:21:44.910Z,4.40
2022-12-18T12:24:34.531Z,4.60
2022-12-18T12:27:14.932Z,4.05
2022-12-18T12:29:54.478Z,4.35
2022-12-18T12:32:40.065Z,5.95
2022-12-18T12:35:23.779Z,7.53
2022-12-18T12:38:07.393Z,11.15
2022-12-18T12:40:57.009Z,10.25
2022-12-18T12:43:40.482Z,11.52
2022-12-18T12:46:15.192Z,12.00
2022-12-18T12:48:50.216Z,11.32
2022-12-18T12:51:24.885Z,12.45
2022-12-18T12:53:57.164Z,11.15
2022-12-18T12:56:40.168Z,11.93
2022-12-18T12:59:19.409Z,10.32
2022-12-18T13:02:01.169Z,10.45
2022-12-18T13:04:41.881Z,11.95
2022-12-18T13:07:21.886Z,11.60
2022-12-18T13:10:29.025Z,11.85
2022-12-18T13:12:58.839Z,11.18
2022-12-18T13:15:40.755Z,10.90
2022-12-18T13:18:20.821Z,11.52
2022-12-18T13:20:58.504Z,12.20
2022-12-18T13:23:43.841Z,12.95
2022-12-18T13:26:35.198Z,12.20
2022-12-18T13:29:07.615Z,14.32
2022-12-18T13:32:05.401Z,10.25
2022-12-18T13:34:37.496Z,6.40
2022-12-18T13:37:45.452Z,5.95
2022-12-18T13:40:58.919Z,3.95
2022-12-18T13:43:37.125Z,4.30
2022-12-18T13:46:22.918Z,4.40
2022-12-18T13:49:01.363Z,5.88
2022-12-18T13:51:34.517Z,4.57
2022-12-18T13:54:09.807Z,5.47
2022-12-18T13:56:48.317Z,5.45
2022-12-18T13:59:24.772Z,7.50
2022-12-18T14:02:00.598Z,5.10
2022-12-18T14:04:38.097Z,5.82
2022-12-18T14:07:15.866Z,12.70
2022-12-18T14:10:01.981Z,9.00
2022-12-18T14:12:56.068Z,7.47
2022-12-18T14:15:34.792Z,6.22
2022-12-18T14:18:12.533Z,5.78
2022-12-18T14:20:52.505Z,5.00
2022-12-18T14:23:32.649Z,5.05
2022-12-18T14:26:06.186Z,5.93
2022-12-18T14:28:37.191Z,5.68
2022-12-18T14:31:08.224Z,5.43
2022-12-18T14:33:42.561Z,6.20
2022-12-18T14:36:23.368Z,6.40
2022-12-18T14:38:55.488Z,6.55
2022-12-18T14:41:26.990Z,7.47
2022-12-18T14:43:58.954Z,9.60
2022-12-18T14:46:38.102Z,7.50
2022-12-18T14:49:25.700Z,7.10
2022-12-18T14:52:00.802Z,7.22
2022-12-18T14:54:33.211Z,7.50
2022-12-18T14:57:06.520Z,7.28
2022-12-18T14:59:37.356Z,8.45
2022-12-18T15:02:19.227Z,9.23
2022-12-18T15:04:50.393Z,7.78
2022-12-18T15:07:25.624Z,7.68
2022-12-18T15:10:13.144Z,8.30
2022-12-18T15:12:46.034Z,7.55
2022-12-18T15:15:46.931Z,7.70
2022-12-18T15:18:21.178Z,7.95
2022-12-18T15:20:54.082Z,8.07
2022-12-18T15:23:30.433Z,8.02
2022-12-18T15:26:02.664Z,7.35
2022-12-18T15:28:38.961Z,8.20
2022-12-18T15:31:28.677Z,8.55
2022-12-18T15:34:15.422Z,9.27
2022-12-18T15:36:47.502Z,9.38
2022-12-18T15:39:20.825Z,7.80
2022-12-18T15:42:05.236Z,8.00
2022-12-18T15:44:36.478Z,9.68
2022-12-18T15:53:19.519Z,8.45
2022-12-18T15:56:05.594Z,9.13
2022-12-18T15:58:39.064Z,9.32
2022-12-18T16:01:13.654Z,9.05
2022-12-18T16:03:45.085Z,9.60
2022-12-18T16:06:16.072Z,9.70
2022-12-18T16:08:46.773Z,9.10
2022-12-18T16:11:38.898Z,9.30
2022-12-18T16:14:15.848Z,10.45
2022-12-18T16:16:47.097Z,11.18
2022-12-18T16:19:18.308Z,11.73
2022-12-18T16:21:51.730Z,11.18
2022-12-18T16:24:24.906Z,10.73
2022-12-18T16:27:00.834Z,11.35
2022-12-18T16:29:34.569Z,13.63
2022-12-18T16:34:54.728Z,17.05
2022-12-18T16:37:25.448Z,13.43
2022-12-18T16:39:56.677Z,11.10
2022-12-18T16:42:30.117Z,10.55
2022-12-18T16:45:01.395Z,10.80
2022-12-18T16:47:32.283Z,11.98
2022-12-18T16:50:08.545Z,11.13
2022-12-18T16:52:39.538Z,12.98
2022-12-18T16:55:11.208Z,12.65
2022-12-18T16:57:46.408Z,12.27
2022-12-18T17:00:18.622Z,11.23
2022-12-18T17:02:49.505Z,12.65
2022-12-18T17:05:20.792Z,12.07
2022-12-18T17:07:51.498Z,12.48
2022-12-18T17:10:23.391Z,12.10
2022-12-18T17:13:02.270Z,11.60
2022-12-18T17:15:38.141Z,15.75
2022-12-18T17:18:09.338Z,13.02
2022-12-18T17:20:40.109Z,14.30
2022-12-18T17:23:10.794Z,11.63
2022-12-18T17:25:44.032Z,12.40
2022-12-18T17:28:17.505Z,12.60
2022-12-18T17:30:48.236Z,12.07
2022-12-18T17:33:18.964Z,13.18
2022-12-18T17:35:50.215Z,13.35
2022-12-18T17:38:21.178Z,13.38
2022-12-18T17:40:52.561Z,14.30
2022-12-18T17:43:26.022Z,13.95
2022-12-18T17:45:57.349Z,13.98
2022-12-18T17:48:29.042Z,15.07
2022-12-18T17:51:04.247Z,16.00
2022-12-18T17:53:35.474Z,15.95
2022-12-18T17:56:08.199Z,17.58
2022-12-18T17:58:42.591Z,15.98
2022-12-18T18:01:15.845Z,14.88
2022-12-18T18:06:36.275Z,15.60
2022-12-18T18:09:16.151Z,14.02
2022-12-18T18:12:00.345Z,13.57
2022-12-18T18:14:35.785Z,14.50
2022-12-18T18:17:07.138Z,14.82
2022-12-18T18:19:37.963Z,14.55
2022-12-18T18:22:10.419Z,14.40
2022-12-18T18:24:43.611Z,13.10
2022-12-18T18:27:18.091Z,14.05
2022-12-18T18:29:53.239Z,13.30
2022-12-18T18:32:26.317Z,13.57
2022-12-18T18:34:57.423Z,13.48
2022-12-18T18:37:30.712Z,14.13
2022-12-18T18:40:01.423Z,12.85
2022-12-18T18:42:32.653Z,14.00
2022-12-18T18:45:06.085Z,14.13
2022-12-18T18:50:30.466Z,14.40
2022-12-18T18:53:01.357Z,13.50
2022-12-18T18:55:38.694Z,13.40
2022-12-18T18:58:09.722Z,12.93
2022-12-18T19:00:43.213Z,14.52
2022-12-18T19:03:14.521Z,13.60
2022-12-18T19:05:47.613Z,14.10
2022-12-18T19:08:18.871Z,13.82
2022-12-18T19:10:57.409Z,14.77
2022-12-18T19:13:30.388Z,13.50
2022-12-18T19:16:11.206Z,14.93
2022-12-18T19:18:42.687Z,14.65
2022-12-18T19:21:16.468Z,15.02
2022-12-18T19:29:34.103Z,15.20
2022-12-18T19:32:08.269Z,14.02
2022-12-18T19:34:53.520Z,14.60
2022-12-18T19:37:43.864Z,14.75
2022-12-18T19:40:14.771Z,14.35
2022-12-18T19:42:45.576Z,14.10
2022-12-18T19:45:18.634Z,12.90
2022-12-18T19:47:51.911Z,15.07
2022-12-18T19:50:22.736Z,15.20
2022-12-18T19:52:53.494Z,14.60
2022-12-18T19:55:24.286Z,13.73
2022-12-18T19:57:55.068Z,14.30
2022-12-18T20:00:25.865Z,13.85
2022-12-18T20:03:06.450Z,13.40
2022-12-18T20:05:43.845Z,14.05
2022-12-18T20:08:16.065Z,14.88
2022-12-18T20:10:48.911Z,14.38
2022-12-18T20:13:20.786Z,13.77
2022-12-18T20:15:58.336Z,13.85
2022-12-18T20:18:34.715Z,13.88
2022-12-18T20:21:09.491Z,13.65
2022-12-18T20:23:47.179Z,13.15
2022-12-18T20:26:21.815Z,14.18
2022-12-18T20:28:52.569Z,13.85
2022-12-18T20:31:23.745Z,13.75
2022-12-18T20:34:01.761Z,14.77
2022-12-18T20:36:35.174Z,13.15
2022-12-18T20:39:12.256Z,14.40
2022-12-18T20:41:47.057Z,14.88
2022-12-18T20:44:22.512Z,16.00
2022-12-18T20:47:00.265Z,14.30
2022-12-18T20:49:37.571Z,14.40
2022-12-18T20:52:11.434Z,14.75
2022-12-18T20:54:42.192Z,13.95
2022-12-18T20:57:12.940Z,14.30
2022-12-18T20:59:48.068Z,13.27
2022-12-18T21:02:19.968Z,14.77
2022-12-18T21:04:54.280Z,13.60
2022-12-18T21:07:27.395Z,13.77
2022-12-18T21:09:58.118Z,14.38
2022-12-18T21:12:43.943Z,14.10
2022-12-18T21:15:22.840Z,13.52
2022-12-18T21:17:56.214Z,12.85
2022-12-18T21:20:29.731Z,14.10
2022-12-18T21:23:12.077Z,14.40
2022-12-18T21:25:47.579Z,13.60
2022-12-18T21:28:25.168Z,12.30
2022-12-18T21:30:56.001Z,14.10
2022-12-18T21:33:26.821Z,15.37
2022-12-18T21:36:00.150Z,13.30
2022-12-18T21:38:33.320Z,14.45
2022-12-18T21:41:07.927Z,14.32
2022-12-18T21:43:52.867Z,14.80
2022-12-18T21:46:24.919Z,14.30
2022-12-18T21:48:55.720Z,15.10
2022-12-18T21:51:29.023Z,12.82
2022-12-18T21:54:01.175Z,14.30
2022-12-18T21:56:46.644Z,14.43
2022-12-18T21:59:20.583Z,13.40
2022-12-18T22:01:54.172Z,12.73
2022-12-18T22:04:28.954Z,13.10
2022-12-18T22:07:03.133Z,13.68
2022-12-18T22:09:35.700Z,14.07
2022-12-18T22:12:07.156Z,13.82
2022-12-18T22:14:38.270Z,13.35
2022-12-18T22:17:11.069Z,13.68
2022-12-18T22:19:43.192Z,13.70
2022-12-18T22:22:17.147Z,14.27
2022-12-18T22:24:47.862Z,13.48
2022-12-18T22:27:18.604Z,13.90
2022-12-18T22:30:01.953Z,13.77
2022-12-18T22:32:33.579Z,13.05
2022-12-18T22:35:16.184Z,13.80
2022-12-18T22:37:49.613Z,14.18
2022-12-18T22:40:25.769Z,14.57
2022-12-18T22:42:57.470Z,13.00
2022-12-18T22:45:28.748Z,14.68
2022-12-18T22:48:01.010Z,15.77
2022-12-18T22:50:33.770Z,14.30
2022-12-18T22:53:08.348Z,14.98
2022-12-18T22:55:39.834Z,14.13
2022-12-18T22:58:15.219Z,13.90
2022-12-18T23:00:46.510Z,14.20
2022-12-18T23:03:18.302Z,14.02
2022-12-18T23:06:05.783Z,14.90
2022-12-18T23:08:39.921Z,14.13
2022-12-18T23:11:11.170Z,13.80
2022-12-18T23:13:42.484Z,13.90
2022-12-18T23:16:16.655Z,14.23
2022-12-18T23:21:57.777Z,15.20
2022-12-18T23:24:32.720Z,15.10
2022-12-18T23:27:03.800Z,15.45
2022-12-18T23:29:39.264Z,15.07
2022-12-18T23:32:10.539Z,15.05
2022-12-18T23:34:42.162Z,15.32
2022-12-18T23:37:12.952Z,15.45
2022-12-18T23:39:46.441Z,14.07
2022-12-18T23:42:19.004Z,14.63
2022-12-18T23:44:51.486Z,15.35
2022-12-18T23:47:22.255Z,14.25
2022-12-18T23:49:54.283Z,14.25
2022-12-18T23:52:25.480Z,14.80
2022-12-18T23:54:58.804Z,14.68
2022-12-18T23:57:29.827Z,15.70
